Beland, Oklahoma
Current Conditions -  °F | °C
As of 11:53 PM on Saturday 25 Oct 2014 (Local Time) from KMKO Reporting Station
Clear Clear  
Wind Chill: 64°   Ceiling: Unl
Heat Index: 64°   Visibility: 9mi
Dew Point: 62°   Wind: 6mph
Humidity: 93%   Direction: 160°SSE
Pressure: 30.01"   Gusts: NA
Location:  35.6818°N, 95.3578°W
Report Text: KMKO 260453Z AUTO 16005KT 9SM CLR 18/17 A3001 RMK AO2 SLP156 T01780167
Loading
Personal Weather Stations






























Interactive Weather Map
Tropical Storm Tracking
New forecast layout! Learn more

10-Day Weather Forecast

Advertisements
Track Severe Weather on mobile